sensor_id;sensor_type;location;lat;lon;timestamp;temperature;humidity
2212;DHT22;48849;48.758;9.158;2022-09-16T00:01:49;17.90;99.90
2212;DHT22;48849;48.758;9.158;2022-09-16T00:04:17;17.90;99.90
2212;DHT22;48849;48.758;9.158;2022-09-16T00:06:45;17.90;99.90
2212;DHT22;48849;48.758;9.158;2022-09-16T00:09:11;17.90;99.90
2212;DHT22;48849;48.758;9.158;2022-09-16T00:11:38;17.90;99.90
2212;DHT22;48849;48.758;9.158;2022-09-16T00:14:05;18.00;99.90
2212;DHT22;48849;48.758;9.158;2022-09-16T00:16:32;18.10;99.90
2212;DHT22;48849;48.758;9.158;2022-09-16T00:18:59;18.00;99.90
2212;DHT22;48849;48.758;9.158;2022-09-16T00:21:28;18.00;99.90
2212;DHT22;48849;48.758;9.158;2022-09-16T00:23:55;18.00;99.90
2212;DHT22;48849;48.758;9.158;2022-09-16T00:26:22;18.00;99.90
2212;DHT22;48849;48.758;9.158;2022-09-16T00:28:50;18.00;99.90
2212;DHT22;48849;48.758;9.158;2022-09-16T00:31:17;18.00;99.90
2212;DHT22;48849;48.758;9.158;2022-09-16T00:33:44;18.00;99.90
2212;DHT22;48849;48.758;9.158;2022-09-16T00:36:13;18.00;99.90
2212;DHT22;48849;48.758;9.158;2022-09-16T00:38:41;18.00;99.90
2212;DHT22;48849;48.758;9.158;2022-09-16T00:41:15;18.10;99.90
2212;DHT22;48849;48.758;9.158;2022-09-16T00:43:51;18.00;99.90
2212;DHT22;48849;48.758;9.158;2022-09-16T00:46:20;18.10;99.90
2212;DHT22;48849;48.758;9.158;2022-09-16T00:48:49;18.10;99.90
2212;DHT22;48849;48.758;9.158;2022-09-16T00:51:16;18.00;99.90
2212;DHT22;48849;48.758;9.158;2022-09-16T00:53:50;18.10;99.90
2212;DHT22;48849;48.758;9.158;2022-09-16T00:56:23;18.10;99.90
2212;DHT22;48849;48.758;9.158;2022-09-16T00:58:55;18.10;99.90
2212;DHT22;48849;48.758;9.158;2022-09-16T01:01:26;18.10;99.90
2212;DHT22;48849;48.758;9.158;2022-09-16T01:03:57;18.00;99.90
2212;DHT22;48849;48.758;9.158;2022-09-16T01:06:25;18.00;99.90
2212;DHT22;48849;48.758;9.158;2022-09-16T01:08:55;18.00;99.90
2212;DHT22;48849;48.758;9.158;2022-09-16T01:11:22;18.00;99.90
2212;DHT22;48849;48.758;9.158;2022-09-16T01:13:49;18.10;99.90
2212;DHT22;48849;48.758;9.158;2022-09-16T01:16:21;18.00;99.90
2212;DHT22;48849;48.758;9.158;2022-09-16T01:18:56;18.00;99.90
2212;DHT22;48849;48.758;9.158;2022-09-16T01:21:37;18.00;99.90
2212;DHT22;48849;48.758;9.158;2022-09-16T01:24:23;18.00;99.90
2212;DHT22;48849;48.758;9.158;2022-09-16T01:30:28;17.90;99.90
2212;DHT22;48849;48.758;9.158;2022-09-16T01:33:00;17.90;99.90
2212;DHT22;48849;48.758;9.158;2022-09-16T01:35:38;18.00;99.90
2212;DHT22;48849;48.758;9.158;2022-09-16T01:38:21;18.00;99.90
2212;DHT22;48849;48.758;9.158;2022-09-16T01:40:56;17.90;99.90
2212;DHT22;48849;48.758;9.158;2022-09-16T01:43:34;17.90;99.90
2212;DHT22;48849;48.758;9.158;2022-09-16T01:46:11;18.00;99.90
2212;DHT22;48849;48.758;9.158;2022-09-16T01:48:43;17.90;99.90
2212;DHT22;48849;48.758;9.158;2022-09-16T01:51:18;17.90;99.90
2212;DHT22;48849;48.758;9.158;2022-09-16T01:53:50;17.90;99.90
2212;DHT22;48849;48.758;9.158;2022-09-16T01:56:21;17.90;99.90
2212;DHT22;48849;48.758;9.158;2022-09-16T01:58:54;17.90;99.90
2212;DHT22;48849;48.758;9.158;2022-09-16T02:01:26;17.90;99.90
2212;DHT22;48849;48.758;9.158;2022-09-16T02:03:59;18.00;99.90
2212;DHT22;48849;48.758;9.158;2022-09-16T02:06:28;17.90;99.90
2212;DHT22;48849;48.758;9.158;2022-09-16T02:08:58;17.90;99.90
2212;DHT22;48849;48.758;9.158;2022-09-16T02:11:25;17.90;99.90
2212;DHT22;48849;48.758;9.158;2022-09-16T02:13:55;17.90;99.90
2212;DHT22;48849;48.758;9.158;2022-09-16T02:16:29;17.90;99.90
2212;DHT22;48849;48.758;9.158;2022-09-16T02:19:00;17.90;99.90
2212;DHT22;48849;48.758;9.158;2022-09-16T02:21:31;17.90;99.90
2212;DHT22;48849;48.758;9.158;2022-09-16T02:24:02;17.90;99.90
2212;DHT22;48849;48.758;9.158;2022-09-16T02:26:36;17.90;99.90
2212;DHT22;48849;48.758;9.158;2022-09-16T02:29:08;17.90;99.90
2212;DHT22;48849;48.758;9.158;2022-09-16T02:31:41;17.90;99.90
2212;DHT22;48849;48.758;9.158;2022-09-16T02:34:13;17.90;99.90
2212;DHT22;48849;48.758;9.158;2022-09-16T02:36:44;17.90;99.90
2212;DHT22;48849;48.758;9.158;2022-09-16T02:39:15;17.90;99.90
2212;DHT22;48849;48.758;9.158;2022-09-16T02:41:44;17.90;99.90
2212;DHT22;48849;48.758;9.158;2022-09-16T02:44:12;17.90;99.90
2212;DHT22;48849;48.758;9.158;2022-09-16T02:46:48;17.90;99.90
2212;DHT22;48849;48.758;9.158;2022-09-16T02:49:25;17.90;99.90
2212;DHT22;48849;48.758;9.158;2022-09-16T02:51:58;17.80;99.90
2212;DHT22;48849;48.758;9.158;2022-09-16T02:54:33;17.80;99.90
2212;DHT22;48849;48.758;9.158;2022-09-16T02:57:01;17.80;99.90
2212;DHT22;48849;48.758;9.158;2022-09-16T02:59:29;17.80;99.90
2212;DHT22;48849;48.758;9.158;2022-09-16T03:01:58;17.80;99.90
2212;DHT22;48849;48.758;9.158;2022-09-16T03:04:25;17.90;99.90
2212;DHT22;48849;48.758;9.158;2022-09-16T03:06:51;17.80;99.90
2212;DHT22;48849;48.758;9.158;2022-09-16T03:09:18;17.80;99.90
2212;DHT22;48849;48.758;9.158;2022-09-16T03:12:21;17.80;99.90
2212;DHT22;48849;48.758;9.158;2022-09-16T03:15:05;17.80;99.90
2212;DHT22;48849;48.758;9.158;2022-09-16T03:20:44;17.80;99.90
2212;DHT22;48849;48.758;9.158;2022-09-16T03:23:17;17.70;99.90
2212;DHT22;48849;48.758;9.158;2022-09-16T03:25:54;17.80;99.90
2212;DHT22;48849;48.758;9.158;2022-09-16T03:28:25;17.70;99.90
2212;DHT22;48849;48.758;9.158;2022-09-16T03:30:55;17.70;99.90
2212;DHT22;48849;48.758;9.158;2022-09-16T03:33:27;17.70;99.90
2212;DHT22;48849;48.758;9.158;2022-09-16T03:36:01;17.70;99.90
2212;DHT22;48849;48.758;9.158;2022-09-16T03:38:31;17.70;99.90
2212;DHT22;48849;48.758;9.158;2022-09-16T03:41:00;17.70;99.90
2212;DHT22;48849;48.758;9.158;2022-09-16T03:43:27;17.70;99.90
2212;DHT22;48849;48.758;9.158;2022-09-16T03:45:54;17.60;99.90
2212;DHT22;48849;48.758;9.158;2022-09-16T03:48:21;17.50;99.90
2212;DHT22;48849;48.758;9.158;2022-09-16T03:50:47;17.50;99.90
2212;DHT22;48849;48.758;9.158;2022-09-16T03:53:15;17.60;99.90
2212;DHT22;48849;48.758;9.158;2022-09-16T03:55:42;17.60;99.90
2212;DHT22;48849;48.758;9.158;2022-09-16T03:58:09;17.60;99.90
2212;DHT22;48849;48.758;9.158;2022-09-16T04:00:35;17.60;99.90
2212;DHT22;48849;48.758;9.158;2022-09-16T04:03:02;17.60;99.90
2212;DHT22;48849;48.758;9.158;2022-09-16T04:05:29;17.60;99.90
2212;DHT22;48849;48.758;9.158;2022-09-16T04:07:55;17.60;99.90
2212;DHT22;48849;48.758;9.158;2022-09-16T04:10:23;17.60;99.90
2212;DHT22;48849;48.758;9.158;2022-09-16T04:12:50;17.50;99.90
2212;DHT22;48849;48.758;9.158;2022-09-16T04:15:17;17.60;99.90
2212;DHT22;48849;48.758;9.158;2022-09-16T04:17:44;17.60;99.90
2212;DHT22;48849;48.758;9.158;2022-09-16T04:20:10;17.60;99.90
2212;DHT22;48849;48.758;9.158;2022-09-16T04:22:37;17.60;99.90
2212;DHT22;48849;48.758;9.158;2022-09-16T04:25:05;17.50;99.90
2212;DHT22;48849;48.758;9.158;2022-09-16T04:27:33;17.50;99.90
2212;DHT22;48849;48.758;9.158;2022-09-16T04:29:59;17.60;99.90
2212;DHT22;48849;48.758;9.158;2022-09-16T04:32:26;17.50;99.90
2212;DHT22;48849;48.758;9.158;2022-09-16T04:34:53;17.50;99.90
2212;DHT22;48849;48.758;9.158;2022-09-16T04:37:19;17.50;99.90
2212;DHT22;48849;48.758;9.158;2022-09-16T04:39:46;17.40;99.90
2212;DHT22;48849;48.758;9.158;2022-09-16T04:42:13;17.50;99.90
2212;DHT22;48849;48.758;9.158;2022-09-16T04:44:41;17.50;99.90
2212;DHT22;48849;48.758;9.158;2022-09-16T04:47:09;17.50;99.90
2212;DHT22;48849;48.758;9.158;2022-09-16T04:49:35;17.50;99.90
2212;DHT22;48849;48.758;9.158;2022-09-16T04:52:02;17.60;99.90
2212;DHT22;48849;48.758;9.158;2022-09-16T04:54:29;17.50;99.90
2212;DHT22;48849;48.758;9.158;2022-09-16T04:56:55;17.60;99.90
2212;DHT22;48849;48.758;9.158;2022-09-16T04:59:22;17.50;99.90
2212;DHT22;48849;48.758;9.158;2022-09-16T05:01:50;17.50;99.90
2212;DHT22;48849;48.758;9.158;2022-09-16T05:04:17;17.50;99.90
2212;DHT22;48849;48.758;9.158;2022-09-16T05:06:44;17.50;99.90
2212;DHT22;48849;48.758;9.158;2022-09-16T05:09:11;17.50;99.90
2212;DHT22;48849;48.758;9.158;2022-09-16T05:11:39;17.50;99.90
2212;DHT22;48849;48.758;9.158;2022-09-16T05:14:07;17.50;99.90
2212;DHT22;48849;48.758;9.158;2022-09-16T05:16:36;17.50;99.90
2212;DHT22;48849;48.758;9.158;2022-09-16T05:19:04;17.50;99.90
2212;DHT22;48849;48.758;9.158;2022-09-16T05:21:32;17.40;99.90
2212;DHT22;48849;48.758;9.158;2022-09-16T05:24:00;17.40;99.90
2212;DHT22;48849;48.758;9.158;2022-09-16T05:26:28;17.40;99.90
2212;DHT22;48849;48.758;9.158;2022-09-16T05:28:59;17.40;99.90
2212;DHT22;48849;48.758;9.158;2022-09-16T05:31:27;17.40;99.90
2212;DHT22;48849;48.758;9.158;2022-09-16T05:33:56;17.40;99.90
2212;DHT22;48849;48.758;9.158;2022-09-16T05:36:25;17.30;99.90
2212;DHT22;48849;48.758;9.158;2022-09-16T05:38:52;17.30;99.90
2212;DHT22;48849;48.758;9.158;2022-09-16T05:41:19;17.30;99.90
2212;DHT22;48849;48.758;9.158;2022-09-16T05:43:45;17.30;99.90
2212;DHT22;48849;48.758;9.158;2022-09-16T05:46:16;17.30;99.90
2212;DHT22;48849;48.758;9.158;2022-09-16T05:48:44;17.30;99.90
2212;DHT22;48849;48.758;9.158;2022-09-16T05:51:13;17.30;99.90
2212;DHT22;48849;48.758;9.158;2022-09-16T05:53:41;17.30;99.90
2212;DHT22;48849;48.758;9.158;2022-09-16T05:56:12;17.30;99.90
2212;DHT22;48849;48.758;9.158;2022-09-16T05:58:39;17.30;99.90
2212;DHT22;48849;48.758;9.158;2022-09-16T06:01:08;17.30;99.90
2212;DHT22;48849;48.758;9.158;2022-09-16T06:03:36;17.30;99.90
2212;DHT22;48849;48.758;9.158;2022-09-16T06:06:05;17.30;99.90
2212;DHT22;48849;48.758;9.158;2022-09-16T06:08:33;17.20;99.90
2212;DHT22;48849;48.758;9.158;2022-09-16T06:11:03;17.20;99.90
2212;DHT22;48849;48.758;9.158;2022-09-16T06:13:30;17.20;99.90
2212;DHT22;48849;48.758;9.158;2022-09-16T06:15:57;17.20;99.90
2212;DHT22;48849;48.758;9.158;2022-09-16T06:18:25;17.20;99.90
2212;DHT22;48849;48.758;9.158;2022-09-16T06:20:53;17.10;99.90
2212;DHT22;48849;48.758;9.158;2022-09-16T06:23:20;17.30;99.90
2212;DHT22;48849;48.758;9.158;2022-09-16T06:25:48;17.30;99.90
2212;DHT22;48849;48.758;9.158;2022-09-16T06:28:16;17.30;99.90
2212;DHT22;48849;48.758;9.158;2022-09-16T06:30:42;17.30;99.90
2212;DHT22;48849;48.758;9.158;2022-09-16T06:33:09;17.30;99.90
2212;DHT22;48849;48.758;9.158;2022-09-16T06:35:37;17.30;99.90
2212;DHT22;48849;48.758;9.158;2022-09-16T06:38:03;17.30;99.90
2212;DHT22;48849;48.758;9.158;2022-09-16T06:40:30;17.30;99.90
2212;DHT22;48849;48.758;9.158;2022-09-16T06:42:57;17.20;99.90
2212;DHT22;48849;48.758;9.158;2022-09-16T06:45:25;17.20;99.90
2212;DHT22;48849;48.758;9.158;2022-09-16T06:47:57;17.20;99.90
2212;DHT22;48849;48.758;9.158;2022-09-16T06:50:24;17.20;99.90
2212;DHT22;48849;48.758;9.158;2022-09-16T06:52:51;17.20;99.90
2212;DHT22;48849;48.758;9.158;2022-09-16T06:55:17;17.20;99.90
2212;DHT22;48849;48.758;9.158;2022-09-16T06:57:44;17.20;99.90
2212;DHT22;48849;48.758;9.158;2022-09-16T07:00:12;17.20;99.90
2212;DHT22;48849;48.758;9.158;2022-09-16T07:02:40;17.20;99.90
2212;DHT22;48849;48.758;9.158;2022-09-16T07:05:07;17.20;99.90
2212;DHT22;48849;48.758;9.158;2022-09-16T07:07:34;17.30;99.90
2212;DHT22;48849;48.758;9.158;2022-09-16T07:10:01;17.30;99.90
2212;DHT22;48849;48.758;9.158;2022-09-16T07:12:28;17.30;99.90
2212;DHT22;48849;48.758;9.158;2022-09-16T07:14:54;17.30;99.90
2212;DHT22;48849;48.758;9.158;2022-09-16T07:17:21;17.30;99.90
2212;DHT22;48849;48.758;9.158;2022-09-16T07:19:52;17.30;99.90
2212;DHT22;48849;48.758;9.158;2022-09-16T07:22:19;17.20;99.90
2212;DHT22;48849;48.758;9.158;2022-09-16T07:24:46;17.20;99.90
2212;DHT22;48849;48.758;9.158;2022-09-16T07:27:12;17.20;99.90
2212;DHT22;48849;48.758;9.158;2022-09-16T07:29:39;17.20;99.90
2212;DHT22;48849;48.758;9.158;2022-09-16T07:32:06;17.20;99.90
2212;DHT22;48849;48.758;9.158;2022-09-16T07:34:32;17.20;99.90
2212;DHT22;48849;48.758;9.158;2022-09-16T07:37:00;17.30;99.90
2212;DHT22;48849;48.758;9.158;2022-09-16T07:39:27;17.30;99.90
2212;DHT22;48849;48.758;9.158;2022-09-16T07:41:54;17.30;99.90
2212;DHT22;48849;48.758;9.158;2022-09-16T07:44:22;17.30;99.90
2212;DHT22;48849;48.758;9.158;2022-09-16T07:46:49;17.30;99.90
2212;DHT22;48849;48.758;9.158;2022-09-16T07:49:15;17.30;99.90
2212;DHT22;48849;48.758;9.158;2022-09-16T07:51:42;17.30;99.90
2212;DHT22;48849;48.758;9.158;2022-09-16T07:54:12;17.30;99.90
2212;DHT22;48849;48.758;9.158;2022-09-16T07:56:40;17.30;99.90
2212;DHT22;48849;48.758;9.158;2022-09-16T07:59:10;17.20;99.90
2212;DHT22;48849;48.758;9.158;2022-09-16T08:01:37;17.30;99.90
2212;DHT22;48849;48.758;9.158;2022-09-16T08:04:04;17.30;99.90
2212;DHT22;48849;48.758;9.158;2022-09-16T08:06:31;17.20;99.90
2212;DHT22;48849;48.758;9.158;2022-09-16T08:08:59;17.20;99.90
2212;DHT22;48849;48.758;9.158;2022-09-16T08:11:28;17.30;99.90
2212;DHT22;48849;48.758;9.158;2022-09-16T08:13:57;17.20;99.90
2212;DHT22;48849;48.758;9.158;2022-09-16T08:16:24;17.20;99.90
2212;DHT22;48849;48.758;9.158;2022-09-16T08:18:53;17.20;99.90
2212;DHT22;48849;48.758;9.158;2022-09-16T08:21:22;17.10;99.90
2212;DHT22;48849;48.758;9.158;2022-09-16T08:23:49;17.20;99.90
2212;DHT22;48849;48.758;9.158;2022-09-16T08:26:17;17.20;99.90
2212;DHT22;48849;48.758;9.158;2022-09-16T08:28:46;17.10;99.90
2212;DHT22;48849;48.758;9.158;2022-09-16T08:31:14;17.20;99.90
2212;DHT22;48849;48.758;9.158;2022-09-16T08:33:42;17.20;99.90
2212;DHT22;48849;48.758;9.158;2022-09-16T08:36:12;17.20;99.90
2212;DHT22;48849;48.758;9.158;2022-09-16T08:38:41;17.20;99.90
2212;DHT22;48849;48.758;9.158;2022-09-16T08:41:30;17.20;99.90
2212;DHT22;48849;48.758;9.158;2022-09-16T08:44:05;17.10;99.90
2212;DHT22;48849;48.758;9.158;2022-09-16T08:46:36;17.10;99.90
2212;DHT22;48849;48.758;9.158;2022-09-16T08:49:16;17.20;99.90
2212;DHT22;48849;48.758;9.158;2022-09-16T08:51:44;17.20;99.90
2212;DHT22;48849;48.758;9.158;2022-09-16T08:54:17;17.20;99.90
2212;DHT22;48849;48.758;9.158;2022-09-16T08:56:50;17.20;99.90
2212;DHT22;48849;48.758;9.158;2022-09-16T08:59:23;17.20;99.90
2212;DHT22;48849;48.758;9.158;2022-09-16T09:01:56;17.20;99.90
2212;DHT22;48849;48.758;9.158;2022-09-16T09:04:25;17.20;99.90
2212;DHT22;48849;48.758;9.158;2022-09-16T09:07:00;17.30;99.90
2212;DHT22;48849;48.758;9.158;2022-09-16T09:09:47;17.30;99.90
2212;DHT22;48849;48.758;9.158;2022-09-16T09:12:21;17.20;99.90
2212;DHT22;48849;48.758;9.158;2022-09-16T09:15:03;17.20;99.90
2212;DHT22;48849;48.758;9.158;2022-09-16T09:17:41;17.30;99.90
2212;DHT22;48849;48.758;9.158;2022-09-16T09:20:19;17.30;99.90
2212;DHT22;48849;48.758;9.158;2022-09-16T09:22:57;17.30;99.90
2212;DHT22;48849;48.758;9.158;2022-09-16T09:25:34;17.30;99.90
2212;DHT22;48849;48.758;9.158;2022-09-16T09:28:20;17.30;99.90
2212;DHT22;48849;48.758;9.158;2022-09-16T09:30:58;17.30;99.90
2212;DHT22;48849;48.758;9.158;2022-09-16T09:33:34;17.30;99.90
2212;DHT22;48849;48.758;9.158;2022-09-16T09:36:25;17.30;99.90
2212;DHT22;48849;48.758;9.158;2022-09-16T09:39:30;17.30;99.90
2212;DHT22;48849;48.758;9.158;2022-09-16T09:42:04;17.30;99.90
2212;DHT22;48849;48.758;9.158;2022-09-16T09:44:43;17.30;99.90
2212;DHT22;48849;48.758;9.158;2022-09-16T09:47:18;17.30;99.90
2212;DHT22;48849;48.758;9.158;2022-09-16T09:49:49;17.30;99.90
2212;DHT22;48849;48.758;9.158;2022-09-16T09:52:21;17.40;99.90
2212;DHT22;48849;48.758;9.158;2022-09-16T09:54:51;17.40;99.90
2212;DHT22;48849;48.758;9.158;2022-09-16T09:57:25;17.40;99.90
2212;DHT22;48849;48.758;9.158;2022-09-16T09:59:59;17.50;99.90
2212;DHT22;48849;48.758;9.158;2022-09-16T10:02:29;17.50;99.90
2212;DHT22;48849;48.758;9.158;2022-09-16T10:04:56;17.50;99.90
2212;DHT22;48849;48.758;9.158;2022-09-16T10:07:24;17.50;99.90
2212;DHT22;48849;48.758;9.158;2022-09-16T10:09:55;17.50;99.90
2212;DHT22;48849;48.758;9.158;2022-09-16T10:12:28;17.50;99.90
2212;DHT22;48849;48.758;9.158;2022-09-16T10:14:55;17.50;99.90
2212;DHT22;48849;48.758;9.158;2022-09-16T10:17:22;17.60;99.90
2212;DHT22;48849;48.758;9.158;2022-09-16T10:19:54;17.60;99.90
2212;DHT22;48849;48.758;9.158;2022-09-16T10:22:25;17.60;99.90
2212;DHT22;48849;48.758;9.158;2022-09-16T10:24:54;17.60;99.90
2212;DHT22;48849;48.758;9.158;2022-09-16T10:27:23;17.50;99.90
2212;DHT22;48849;48.758;9.158;2022-09-16T10:30:06;17.50;99.90
2212;DHT22;48849;48.758;9.158;2022-09-16T10:32:38;17.50;99.90
2212;DHT22;48849;48.758;9.158;2022-09-16T10:35:17;17.50;99.90
2212;DHT22;48849;48.758;9.158;2022-09-16T10:37:50;17.50;99.90
2212;DHT22;48849;48.758;9.158;2022-09-16T10:40:17;17.50;99.90
2212;DHT22;48849;48.758;9.158;2022-09-16T10:42:46;17.50;99.90
2212;DHT22;48849;48.758;9.158;2022-09-16T10:45:16;17.50;99.90
2212;DHT22;48849;48.758;9.158;2022-09-16T10:47:49;17.50;99.90
2212;DHT22;48849;48.758;9.158;2022-09-16T10:50:19;17.50;99.90
2212;DHT22;48849;48.758;9.158;2022-09-16T10:52:47;17.50;99.90
2212;DHT22;48849;48.758;9.158;2022-09-16T10:55:24;17.60;99.90
2212;DHT22;48849;48.758;9.158;2022-09-16T10:57:52;17.60;99.90
2212;DHT22;48849;48.758;9.158;2022-09-16T11:00:20;17.60;99.90
2212;DHT22;48849;48.758;9.158;2022-09-16T11:03:26;17.60;99.90
2212;DHT22;48849;48.758;9.158;2022-09-16T11:06:06;17.60;99.90
2212;DHT22;48849;48.758;9.158;2022-09-16T11:08:45;17.50;99.90
2212;DHT22;48849;48.758;9.158;2022-09-16T11:11:21;17.60;99.90
2212;DHT22;48849;48.758;9.158;2022-09-16T11:13:58;17.60;99.90
2212;DHT22;48849;48.758;9.158;2022-09-16T11:16:43;17.60;99.90
2212;DHT22;48849;48.758;9.158;2022-09-16T11:19:20;17.60;99.90
2212;DHT22;48849;48.758;9.158;2022-09-16T11:22:01;17.60;99.90
2212;DHT22;48849;48.758;9.158;2022-09-16T11:24:54;17.60;99.90
2212;DHT22;48849;48.758;9.158;2022-09-16T11:27:36;17.60;99.90
2212;DHT22;48849;48.758;9.158;2022-09-16T11:30:10;17.50;99.90
2212;DHT22;48849;48.758;9.158;2022-09-16T11:32:59;17.50;99.90
2212;DHT22;48849;48.758;9.158;2022-09-16T11:38:22;17.50;99.90
2212;DHT22;48849;48.758;9.158;2022-09-16T11:40:53;17.50;99.90
2212;DHT22;48849;48.758;9.158;2022-09-16T11:46:30;17.60;99.90
2212;DHT22;48849;48.758;9.158;2022-09-16T11:49:05;17.60;99.90
2212;DHT22;48849;48.758;9.158;2022-09-16T11:51:47;17.60;99.90
2212;DHT22;48849;48.758;9.158;2022-09-16T11:54:29;17.60;99.90
2212;DHT22;48849;48.758;9.158;2022-09-16T11:57:01;17.60;99.90
2212;DHT22;48849;48.758;9.158;2022-09-16T11:59:34;17.70;99.90
2212;DHT22;48849;48.758;9.158;2022-09-16T12:02:14;17.70;99.90
2212;DHT22;48849;48.758;9.158;2022-09-16T12:04:47;17.70;99.90
2212;DHT22;48849;48.758;9.158;2022-09-16T12:07:17;17.70;99.90
2212;DHT22;48849;48.758;9.158;2022-09-16T12:09:50;17.70;99.90
2212;DHT22;48849;48.758;9.158;2022-09-16T12:12:19;17.80;99.90
2212;DHT22;48849;48.758;9.158;2022-09-16T12:14:51;17.90;99.90
2212;DHT22;48849;48.758;9.158;2022-09-16T12:17:22;17.90;99.90
2212;DHT22;48849;48.758;9.158;2022-09-16T12:19:55;17.90;99.90
2212;DHT22;48849;48.758;9.158;2022-09-16T12:22:26;18.00;99.90
2212;DHT22;48849;48.758;9.158;2022-09-16T12:25:02;18.00;99.90
2212;DHT22;48849;48.758;9.158;2022-09-16T12:27:37;18.00;99.90
2212;DHT22;48849;48.758;9.158;2022-09-16T12:30:13;18.00;99.90
2212;DHT22;48849;48.758;9.158;2022-09-16T12:32:50;18.00;99.90
2212;DHT22;48849;48.758;9.158;2022-09-16T12:35:21;18.00;99.90
2212;DHT22;48849;48.758;9.158;2022-09-16T12:37:51;18.00;99.90
2212;DHT22;48849;48.758;9.158;2022-09-16T12:40:23;18.00;99.90
2212;DHT22;48849;48.758;9.158;2022-09-16T12:43:12;17.90;99.90
2212;DHT22;48849;48.758;9.158;2022-09-16T12:46:22;17.90;99.90
2212;DHT22;48849;48.758;9.158;2022-09-16T12:49:13;17.90;99.90
2212;DHT22;48849;48.758;9.158;2022-09-16T12:52:02;17.90;99.90
2212;DHT22;48849;48.758;9.158;2022-09-16T12:54:46;17.90;99.90
2212;DHT22;48849;48.758;9.158;2022-09-16T12:57:33;17.90;99.90
2212;DHT22;48849;48.758;9.158;2022-09-16T13:00:13;17.80;99.90
2212;DHT22;48849;48.758;9.158;2022-09-16T13:02:44;17.80;99.90
2212;DHT22;48849;48.758;9.158;2022-09-16T13:05:18;17.80;99.90
2212;DHT22;48849;48.758;9.158;2022-09-16T13:07:49;17.80;99.90
2212;DHT22;48849;48.758;9.158;2022-09-16T13:10:19;17.80;99.90
2212;DHT22;48849;48.758;9.158;2022-09-16T13:12:52;17.90;99.90
2212;DHT22;48849;48.758;9.158;2022-09-16T13:15:26;18.00;99.90
2212;DHT22;48849;48.758;9.158;2022-09-16T13:17:54;18.00;99.90
2212;DHT22;48849;48.758;9.158;2022-09-16T13:20:24;18.10;99.90
2212;DHT22;48849;48.758;9.158;2022-09-16T13:23:02;18.10;99.90
2212;DHT22;48849;48.758;9.158;2022-09-16T13:25:32;18.10;99.90
2212;DHT22;48849;48.758;9.158;2022-09-16T13:28:03;18.20;99.90
2212;DHT22;48849;48.758;9.158;2022-09-16T13:30:35;18.20;99.90
2212;DHT22;48849;48.758;9.158;2022-09-16T13:33:26;18.20;99.90
2212;DHT22;48849;48.758;9.158;2022-09-16T13:36:12;18.30;99.90
2212;DHT22;48849;48.758;9.158;2022-09-16T13:38:40;18.30;99.90
2212;DHT22;48849;48.758;9.158;2022-09-16T13:41:10;18.30;99.90
2212;DHT22;48849;48.758;9.158;2022-09-16T13:43:51;18.30;99.90
2212;DHT22;48849;48.758;9.158;2022-09-16T13:46:34;18.40;99.90
2212;DHT22;48849;48.758;9.158;2022-09-16T13:49:15;18.40;99.90
2212;DHT22;48849;48.758;9.158;2022-09-16T13:51:44;18.50;99.90
2212;DHT22;48849;48.758;9.158;2022-09-16T13:54:24;18.50;99.90
2212;DHT22;48849;48.758;9.158;2022-09-16T13:57:03;18.50;99.90
2212;DHT22;48849;48.758;9.158;2022-09-16T13:59:44;18.50;99.90
2212;DHT22;48849;48.758;9.158;2022-09-16T14:02:15;18.50;99.90
2212;DHT22;48849;48.758;9.158;2022-09-16T14:05:03;18.60;99.90
2212;DHT22;48849;48.758;9.158;2022-09-16T14:07:41;18.60;99.90
2212;DHT22;48849;48.758;9.158;2022-09-16T14:10:17;18.60;99.90
2212;DHT22;48849;48.758;9.158;2022-09-16T14:12:53;18.60;99.90
2212;DHT22;48849;48.758;9.158;2022-09-16T14:15:24;18.60;99.90
2212;DHT22;48849;48.758;9.158;2022-09-16T14:17:56;18.70;99.90
2212;DHT22;48849;48.758;9.158;2022-09-16T14:20:25;18.70;99.90
2212;DHT22;48849;48.758;9.158;2022-09-16T14:23:00;18.80;99.90
2212;DHT22;48849;48.758;9.158;2022-09-16T14:25:29;18.80;99.90
2212;DHT22;48849;48.758;9.158;2022-09-16T14:28:08;18.80;99.90
2212;DHT22;48849;48.758;9.158;2022-09-16T14:30:36;18.80;99.90
2212;DHT22;48849;48.758;9.158;2022-09-16T14:33:03;18.80;99.90
2212;DHT22;48849;48.758;9.158;2022-09-16T14:35:32;18.80;99.90
2212;DHT22;48849;48.758;9.158;2022-09-16T14:38:01;18.80;99.90
2212;DHT22;48849;48.758;9.158;2022-09-16T14:40:28;18.80;99.90
2212;DHT22;48849;48.758;9.158;2022-09-16T14:42:58;18.90;99.90
2212;DHT22;48849;48.758;9.158;2022-09-16T14:45:26;18.90;99.90
2212;DHT22;48849;48.758;9.158;2022-09-16T14:47:57;18.80;99.90
2212;DHT22;48849;48.758;9.158;2022-09-16T14:50:27;18.80;99.90
2212;DHT22;48849;48.758;9.158;2022-09-16T14:52:55;18.80;99.90
2212;DHT22;48849;48.758;9.158;2022-09-16T14:55:24;18.80;99.90
2212;DHT22;48849;48.758;9.158;2022-09-16T14:57:51;18.80;99.90
2212;DHT22;48849;48.758;9.158;2022-09-16T15:00:19;18.70;99.90
2212;DHT22;48849;48.758;9.158;2022-09-16T15:02:47;18.80;99.90
2212;DHT22;48849;48.758;9.158;2022-09-16T15:05:22;18.80;99.90
2212;DHT22;48849;48.758;9.158;2022-09-16T15:07:52;18.80;99.90
2212;DHT22;48849;48.758;9.158;2022-09-16T15:10:25;18.70;99.90
2212;DHT22;48849;48.758;9.158;2022-09-16T15:12:54;18.80;99.90
2212;DHT22;48849;48.758;9.158;2022-09-16T15:15:24;18.80;99.90
2212;DHT22;48849;48.758;9.158;2022-09-16T15:17:52;18.80;99.90
2212;DHT22;48849;48.758;9.158;2022-09-16T15:20:23;18.80;99.90
2212;DHT22;48849;48.758;9.158;2022-09-16T15:22:51;18.80;99.90
2212;DHT22;48849;48.758;9.158;2022-09-16T15:25:19;18.80;99.90
2212;DHT22;48849;48.758;9.158;2022-09-16T15:27:46;18.80;99.90
2212;DHT22;48849;48.758;9.158;2022-09-16T15:30:21;18.80;99.90
2212;DHT22;48849;48.758;9.158;2022-09-16T15:32:48;18.80;99.90
2212;DHT22;48849;48.758;9.158;2022-09-16T15:35:20;18.80;99.90
2212;DHT22;48849;48.758;9.158;2022-09-16T15:37:49;18.70;99.90
2212;DHT22;48849;48.758;9.158;2022-09-16T15:40:29;18.70;99.90
2212;DHT22;48849;48.758;9.158;2022-09-16T15:43:02;18.70;99.90
2212;DHT22;48849;48.758;9.158;2022-09-16T15:45:29;18.70;99.90
2212;DHT22;48849;48.758;9.158;2022-09-16T15:47:59;18.80;99.90
2212;DHT22;48849;48.758;9.158;2022-09-16T15:50:28;18.60;99.90
2212;DHT22;48849;48.758;9.158;2022-09-16T15:53:00;18.70;99.90
2212;DHT22;48849;48.758;9.158;2022-09-16T15:55:33;18.70;99.90
2212;DHT22;48849;48.758;9.158;2022-09-16T15:58:04;18.70;99.90
2212;DHT22;48849;48.758;9.158;2022-09-16T16:00:59;18.70;99.90
2212;DHT22;48849;48.758;9.158;2022-09-16T16:03:30;18.80;99.90
2212;DHT22;48849;48.758;9.158;2022-09-16T16:05:58;18.70;99.90
2212;DHT22;48849;48.758;9.158;2022-09-16T16:08:43;18.60;99.90
2212;DHT22;48849;48.758;9.158;2022-09-16T16:11:11;18.50;99.90
2212;DHT22;48849;48.758;9.158;2022-09-16T16:13:38;18.60;99.90
2212;DHT22;48849;48.758;9.158;2022-09-16T16:16:05;18.60;99.90
2212;DHT22;48849;48.758;9.158;2022-09-16T16:18:34;18.60;99.90
2212;DHT22;48849;48.758;9.158;2022-09-16T16:21:04;18.60;99.90
2212;DHT22;48849;48.758;9.158;2022-09-16T16:23:31;18.60;99.90
2212;DHT22;48849;48.758;9.158;2022-09-16T16:25:59;18.60;99.90